createdAt,value
2023-03-16T00:00:57.278Z,101867.94
2023-03-16T00:03:24.323Z,101862.63
2023-03-16T00:05:53.189Z,101858.03
2023-03-16T00:08:23.338Z,101864.84
2023-03-16T00:10:50.477Z,101866.47
2023-03-16T00:13:19.139Z,101866.47
2023-03-16T00:15:57.487Z,101874.19
2023-03-16T00:18:33.010Z,101869.81
2023-03-16T00:21:06.496Z,101867.75
2023-03-16T00:23:35.943Z,101866.66
2023-03-16T00:26:05.539Z,101879.50
2023-03-16T00:28:35.311Z,101875.34
2023-03-16T00:31:07.408Z,101870.03
2023-03-16T00:33:37.396Z,101873.44
2023-03-16T00:36:11.257Z,101874.25
2023-03-16T00:38:45.639Z,101882.94
2023-03-16T00:41:14.608Z,101885.63
2023-03-16T00:43:45.520Z,101886.34
2023-03-16T00:46:15.670Z,101883.00
2023-03-16T00:48:48.031Z,101889.84
2023-03-16T00:51:20.432Z,101890.81
2023-03-16T00:53:49.482Z,101893.28
2023-03-16T00:56:19.718Z,101887.22
2023-03-16T00:58:49.397Z,101899.13
2023-03-16T01:01:19.138Z,101898.19
2023-03-16T01:03:48.821Z,101893.16
2023-03-16T01:06:26.868Z,101900.75
2023-03-16T01:08:59.837Z,101894.47
2023-03-16T01:11:29.795Z,101899.44
2023-03-16T01:14:02.225Z,101903.75
2023-03-16T01:16:34.943Z,101901.09
2023-03-16T01:19:01.783Z,101896.63
2023-03-16T01:21:29.336Z,101891.34
2023-03-16T01:24:01.762Z,101902.38
2023-03-16T01:26:28.376Z,101897.09
2023-03-16T01:28:55.082Z,101901.38
2023-03-16T01:31:22.662Z,101900.38
2023-03-16T01:33:55.646Z,101899.44
2023-03-16T01:36:22.548Z,101901.94
2023-03-16T01:38:52.471Z,101893.47
2023-03-16T01:41:19.729Z,101900.25
2023-03-16T01:43:47.465Z,101903.47
2023-03-16T01:46:30.449Z,101904.25
2023-03-16T01:49:25.298Z,101894.59
2023-03-16T01:52:03.787Z,101898.72
2023-03-16T01:54:32.225Z,101897.78
2023-03-16T01:57:18.368Z,101904.72
2023-03-16T01:59:53.110Z,101902.03
2023-03-16T02:02:24.108Z,101901.16
2023-03-16T02:05:07.233Z,101896.91
2023-03-16T02:07:43.060Z,101902.03
2023-03-16T02:10:18.548Z,101895.31
2023-03-16T02:12:55.985Z,101892.00
2023-03-16T02:15:23.180Z,101891.94
2023-03-16T02:17:50.555Z,101884.81
2023-03-16T02:20:29.243Z,101890.75
2023-03-16T02:22:56.387Z,101889.00
2023-03-16T02:25:29.315Z,101890.69
2023-03-16T02:28:29.661Z,101889.81
2023-03-16T02:30:57.114Z,101878.53
2023-03-16T02:33:29.418Z,101887.94
2023-03-16T02:36:00.566Z,101892.06
2023-03-16T02:38:31.069Z,101892.75
2023-03-16T02:41:01.761Z,101888.41
2023-03-16T02:43:40.713Z,101884.91
2023-03-16T02:46:11.390Z,101887.47
2023-03-16T02:49:01.289Z,101890.97
2023-03-16T02:51:32.434Z,101889.03
2023-03-16T02:54:02.044Z,101896.66
2023-03-16T02:56:28.983Z,101891.47
2023-03-16T02:58:59.321Z,101899.94
2023-03-16T03:01:26.462Z,101899.00
2023-03-16T03:03:59.085Z,101898.19
2023-03-16T03:06:32.761Z,101895.56
2023-03-16T03:09:06.662Z,101900.63
2023-03-16T03:11:34.010Z,101904.81
2023-03-16T03:14:02.772Z,101907.38
2023-03-16T03:16:33.290Z,101912.50
2023-03-16T03:19:03.427Z,101907.25
2023-03-16T03:21:30.179Z,101913.13
2023-03-16T03:24:04.391Z,101914.72
2023-03-16T03:26:35.214Z,101914.59
2023-03-16T03:29:02.525Z,101909.31
2023-03-16T03:31:30.175Z,101911.91
2023-03-16T03:34:02.872Z,101913.56
2023-03-16T03:36:35.119Z,101915.03
2023-03-16T03:39:08.737Z,101926.03
2023-03-16T03:41:37.148Z,101916.72
2023-03-16T03:44:07.687Z,101921.91
2023-03-16T03:46:40.140Z,101921.03
2023-03-16T03:49:06.998Z,101921.13
2023-03-16T03:51:37.010Z,101921.09
2023-03-16T03:54:04.229Z,101921.03
2023-03-16T03:56:35.181Z,101920.16
2023-03-16T03:59:10.542Z,101921.78
2023-03-16T04:01:37.134Z,101916.53
2023-03-16T04:04:07.032Z,101924.34
2023-03-16T04:06:35.143Z,101924.22
2023-03-16T04:09:02.456Z,101927.66
2023-03-16T04:11:29.196Z,101914.91
2023-03-16T04:14:01.999Z,101925.91
2023-03-16T04:16:28.655Z,101924.22
2023-03-16T04:18:55.460Z,101924.78
2023-03-16T04:21:24.021Z,101930.84
2023-03-16T04:23:54.540Z,101925.91
2023-03-16T04:26:28.478Z,101918.00
2023-03-16T04:28:56.148Z,101922.41
2023-03-16T04:31:25.685Z,101925.84
2023-03-16T04:33:56.399Z,101928.28
2023-03-16T04:36:26.544Z,101926.59
2023-03-16T04:39:02.717Z,101928.28
2023-03-16T04:41:29.331Z,101926.47
2023-03-16T04:44:00.573Z,101933.34
2023-03-16T04:46:31.759Z,101929.91
2023-03-16T04:48:58.726Z,101938.91
2023-03-16T04:51:27.086Z,101937.31
2023-03-16T04:54:00.075Z,101942.81
2023-03-16T04:56:30.373Z,101943.53
2023-03-16T04:59:05.810Z,101938.22
2023-03-16T05:01:33.635Z,101936.47
2023-03-16T05:04:00.327Z,101937.13
2023-03-16T05:06:30.538Z,101936.03
2023-03-16T05:09:01.040Z,101941.16
2023-03-16T05:11:35.469Z,101938.78
2023-03-16T05:14:06.214Z,101941.34
2023-03-16T05:16:33.396Z,101942.09
2023-03-16T05:19:04.436Z,101937.03
2023-03-16T05:21:32.652Z,101944.16
2023-03-16T05:23:59.819Z,101943.97
2023-03-16T05:26:33.207Z,101944.78
2023-03-16T05:29:03.351Z,101949.16
2023-03-16T05:31:34.279Z,101948.16
2023-03-16T05:34:06.829Z,101949.78
2023-03-16T05:36:36.015Z,101953.16
2023-03-16T05:39:05.901Z,101952.34
2023-03-16T05:41:36.533Z,101959.09
2023-03-16T05:44:04.740Z,101958.50
2023-03-16T05:46:40.272Z,101962.84
2023-03-16T05:49:06.996Z,101953.53
2023-03-16T05:51:42.084Z,101962.22
2023-03-16T05:54:08.806Z,101964.94
2023-03-16T05:56:35.477Z,101970.28
2023-03-16T05:59:07.297Z,101964.41
2023-03-16T06:01:38.635Z,101969.81
2023-03-16T06:04:05.565Z,101974.38
2023-03-16T06:06:32.307Z,101975.47
2023-03-16T06:08:59.050Z,101975.53
2023-03-16T06:11:25.736Z,101979.25
2023-03-16T06:14:00.675Z,101979.47
2023-03-16T06:16:37.050Z,101985.09
2023-03-16T06:19:03.767Z,101985.72
2023-03-16T06:21:30.435Z,101974.88
2023-03-16T06:23:57.067Z,101984.75
2023-03-16T06:26:23.850Z,101987.66
2023-03-16T06:28:50.548Z,101982.03
2023-03-16T06:31:20.488Z,101991.38
2023-03-16T06:33:47.285Z,101990.13
2023-03-16T06:36:15.113Z,101988.94
2023-03-16T06:38:41.763Z,102001.94
2023-03-16T06:41:08.621Z,102003.09
2023-03-16T06:43:35.441Z,102003.31
2023-03-16T06:46:03.477Z,102011.25
2023-03-16T06:48:30.245Z,102015.78
2023-03-16T06:50:56.930Z,102014.41
2023-03-16T06:53:26.976Z,102007.13
2023-03-16T06:55:53.584Z,102013.44
2023-03-16T06:58:20.389Z,102017.13
2023-03-16T07:00:47.353Z,102022.59
2023-03-16T07:03:14.094Z,102023.00
2023-03-16T07:05:40.724Z,102030.09
2023-03-16T07:08:07.336Z,102026.06
2023-03-16T07:10:36.845Z,102034.28
2023-03-16T07:13:04.351Z,102037.34
2023-03-16T07:15:31.433Z,102037.09
2023-03-16T07:17:58.079Z,102036.16
2023-03-16T07:20:25.457Z,102040.19
2023-03-16T07:22:54.779Z,102045.78
2023-03-16T07:25:21.514Z,102036.31
2023-03-16T07:27:48.368Z,102044.34
2023-03-16T07:30:23.723Z,102045.28
2023-03-16T07:32:50.366Z,102049.66
2023-03-16T07:35:20.260Z,102050.19
2023-03-16T07:37:46.898Z,102046.50
2023-03-16T07:40:14.481Z,102061.00
2023-03-16T07:42:44.262Z,102047.81
2023-03-16T07:45:12.819Z,102059.22
2023-03-16T07:47:41.963Z,102058.53
2023-03-16T07:50:10.303Z,102053.78
2023-03-16T07:52:37.621Z,102057.50
2023-03-16T07:55:05.536Z,102063.31
2023-03-16T07:57:32.682Z,102063.59
2023-03-16T07:59:59.438Z,102063.31
2023-03-16T08:02:26.202Z,102062.91
2023-03-16T08:04:52.827Z,102058.94
2023-03-16T08:07:25.655Z,102061.91
2023-03-16T08:09:52.676Z,102065.56
2023-03-16T08:12:19.522Z,102065.03
2023-03-16T08:14:47.390Z,102058.72
2023-03-16T08:17:14.050Z,102067.09
2023-03-16T08:19:40.950Z,102058.75
2023-03-16T08:22:10.747Z,102065.28
2023-03-16T08:24:37.547Z,102064.59
2023-03-16T08:27:04.707Z,102052.38
2023-03-16T08:29:38.194Z,102058.81
2023-03-16T08:32:07.722Z,102064.16
2023-03-16T08:34:39.250Z,102058.75
2023-03-16T08:37:06.814Z,102061.59
2023-03-16T08:39:37.151Z,102060.78
2023-03-16T08:42:08.444Z,102067.91
2023-03-16T08:44:38.396Z,102062.63
2023-03-16T08:47:05.271Z,102073.13
2023-03-16T08:49:31.988Z,102073.03
2023-03-16T08:52:00.772Z,102067.81
2023-03-16T08:54:27.562Z,102080.06
2023-03-16T08:56:54.185Z,102076.59
2023-03-16T08:59:29.743Z,102074.88
2023-03-16T09:01:57.055Z,102078.34
2023-03-16T09:04:23.868Z,102076.59
2023-03-16T09:07:09.853Z,102083.50
2023-03-16T09:09:40.478Z,102080.94
2023-03-16T09:12:07.439Z,102087.06
2023-03-16T09:14:37.990Z,102080.97
2023-03-16T09:17:11.901Z,102084.44
2023-03-16T09:19:57.762Z,102088.78
2023-03-16T09:22:25.830Z,102088.72
2023-03-16T09:24:58.284Z,102088.50
2023-03-16T09:27:25.464Z,102097.28
2023-03-16T09:29:55.820Z,102093.81
2023-03-16T09:32:22.897Z,102096.16
2023-03-16T09:34:49.629Z,102098.06
2023-03-16T09:37:16.442Z,102100.38
2023-03-16T09:39:47.416Z,102097.66
2023-03-16T09:42:41.072Z,102103.53
2023-03-16T09:45:26.698Z,102101.88
2023-03-16T09:47:57.990Z,102097.63
2023-03-16T09:50:47.383Z,102096.53
2023-03-16T09:53:33.300Z,102101.84
2023-03-16T09:56:11.470Z,102101.16
2023-03-16T09:58:38.567Z,102094.69
2023-03-16T10:01:51.551Z,102098.44
2023-03-16T10:04:28.007Z,102100.44
2023-03-16T10:07:24.020Z,102107.16
2023-03-16T10:10:18.500Z,102100.38
2023-03-16T10:12:52.679Z,102097.19
2023-03-16T10:15:23.913Z,102096.91
2023-03-16T10:17:58.582Z,102107.16
2023-03-16T10:20:28.269Z,102098.31
2023-03-16T10:23:02.243Z,102092.69
2023-03-16T10:25:47.280Z,102085.53
2023-03-16T10:28:27.212Z,102090.41
2023-03-16T10:30:56.779Z,102089.34
2023-03-16T10:33:30.305Z,102093.28
2023-03-16T10:36:04.276Z,102098.41
2023-03-16T10:38:38.766Z,102095.41
2023-03-16T10:41:23.282Z,102089.72
2023-03-16T10:44:12.396Z,102089.44
2023-03-16T10:47:05.997Z,102084.44
2023-03-16T10:49:42.290Z,102088.03
2023-03-16T10:52:37.000Z,102071.84
2023-03-16T10:55:17.079Z,102068.25
2023-03-16T10:57:50.266Z,102075.31
2023-03-16T11:00:29.041Z,102079.22
2023-03-16T11:02:59.884Z,102073.56
2023-03-16T11:05:32.335Z,102073.31
2023-03-16T11:08:09.709Z,102074.72
2023-03-16T11:10:49.392Z,102076.34
2023-03-16T11:13:22.756Z,102071.13
2023-03-16T11:15:57.522Z,102077.84
2023-03-16T11:18:39.215Z,102066.09
2023-03-16T11:21:17.423Z,102065.47
2023-03-16T11:23:56.665Z,102065.59
2023-03-16T11:26:34.968Z,102058.34
2023-03-16T11:29:18.881Z,102055.44
2023-03-16T11:31:57.935Z,102059.84
2023-03-16T11:34:29.057Z,102049.75
2023-03-16T11:37:02.218Z,102056.69
2023-03-16T11:39:44.404Z,102046.81
2023-03-16T11:42:33.329Z,102050.53
2023-03-16T11:45:11.359Z,102049.53
2023-03-16T11:48:03.664Z,102041.59
2023-03-16T11:50:51.695Z,102039.97
2023-03-16T11:53:25.888Z,102029.59
2023-03-16T11:56:24.072Z,102026.66
2023-03-16T11:59:09.186Z,102024.28
2023-03-16T12:02:00.223Z,102033.31
2023-03-16T12:05:26.219Z,102021.72
2023-03-16T12:07:58.533Z,102013.91
2023-03-16T12:10:47.521Z,102005.38
2023-03-16T12:13:40.137Z,102002.44
2023-03-16T12:16:13.507Z,102005.69
2023-03-16T12:18:49.824Z,102008.97
2023-03-16T12:21:26.219Z,102002.44
2023-03-16T12:23:56.622Z,101995.91
2023-03-16T12:26:30.434Z,101996.91
2023-03-16T12:29:04.621Z,101992.06
2023-03-16T12:31:47.620Z,101985.31
2023-03-16T12:34:35.878Z,101980.09
2023-03-16T12:37:36.316Z,101980.56
2023-03-16T12:40:12.177Z,101971.25
2023-03-16T12:42:50.707Z,101966.50
2023-03-16T12:45:36.108Z,101966.38
2023-03-16T12:48:25.036Z,101962.59
2023-03-16T12:50:58.903Z,101959.59
2023-03-16T12:53:27.180Z,101960.41
2023-03-16T12:55:57.337Z,101957.03
2023-03-16T12:58:26.227Z,101955.53
2023-03-16T13:00:58.757Z,101947.38
2023-03-16T13:03:26.784Z,101937.75
2023-03-16T13:06:00.844Z,101954.72
2023-03-16T13:08:29.119Z,101944.19
2023-03-16T13:11:10.724Z,101940.44
2023-03-16T13:14:01.899Z,101940.34
2023-03-16T13:16:32.400Z,101933.22
2023-03-16T13:18:59.298Z,101928.59
2023-03-16T13:21:45.001Z,101926.78
2023-03-16T13:24:19.670Z,101922.50
2023-03-16T13:26:47.520Z,101921.91
2023-03-16T13:29:29.507Z,101932.44
2023-03-16T13:32:16.108Z,101933.91
2023-03-16T13:34:56.606Z,101935.47
2023-03-16T13:37:24.449Z,101938.16
2023-03-16T13:39:59.968Z,101937.53
2023-03-16T13:42:31.559Z,101935.63
2023-03-16T13:44:59.678Z,101940.69
2023-03-16T13:47:28.239Z,101935.44
2023-03-16T13:49:59.637Z,101936.69
2023-03-16T13:52:31.364Z,101932.06
2023-03-16T13:54:59.736Z,101920.13
2023-03-16T13:57:29.701Z,101925.44
2023-03-16T14:00:27.735Z,101918.75
2023-03-16T14:03:03.301Z,101909.34
2023-03-16T14:05:36.112Z,101900.72
2023-03-16T14:08:05.123Z,101890.38
2023-03-16T14:10:34.686Z,101891.16
2023-03-16T14:13:38.430Z,101886.81
2023-03-16T14:16:18.897Z,101896.59
2023-03-16T14:18:57.764Z,101893.19
2023-03-16T14:21:34.241Z,101890.44
2023-03-16T14:24:07.522Z,101885.25
2023-03-16T14:26:47.882Z,101880.91
2023-03-16T14:29:28.372Z,101894.19
2023-03-16T14:31:55.693Z,101892.53
2023-03-16T14:34:50.119Z,101890.84
2023-03-16T14:37:35.679Z,101889.13
2023-03-16T14:40:06.160Z,101880.41
2023-03-16T14:42:35.997Z,101877.69
2023-03-16T14:45:07.857Z,101874.25
2023-03-16T14:47:42.759Z,101866.47
2023-03-16T14:50:25.338Z,101863.00
2023-03-16T14:52:59.365Z,101858.75
2023-03-16T14:55:26.096Z,101847.41
2023-03-16T14:57:53.360Z,101850.16
2023-03-16T15:00:22.123Z,101848.41
2023-03-16T15:03:14.222Z,101848.34
2023-03-16T15:05:42.916Z,101840.44
2023-03-16T15:08:46.304Z,101844.84
2023-03-16T15:11:15.480Z,101842.16
2023-03-16T15:13:42.117Z,101849.00
2023-03-16T15:16:14.084Z,101833.50
2023-03-16T15:19:25.483Z,101839.81
2023-03-16T15:21:52.230Z,101838.09
2023-03-16T15:24:18.933Z,101838.16
2023-03-16T15:26:45.577Z,101828.59
2023-03-16T15:29:13.486Z,101823.41
2023-03-16T15:31:40.244Z,101816.41
2023-03-16T15:34:07.291Z,101827.75
2023-03-16T15:36:34.011Z,101833.09
2023-03-16T15:39:02.144Z,101831.28
2023-03-16T15:41:38.138Z,101827.75
2023-03-16T15:44:13.114Z,101833.75
2023-03-16T15:46:39.954Z,101824.03
2023-03-16T15:49:06.651Z,101827.63
2023-03-16T15:51:33.663Z,101833.88
2023-03-16T15:54:08.926Z,101812.81
2023-03-16T15:56:54.337Z,101815.31
2023-03-16T15:59:25.723Z,101812.69
2023-03-16T16:01:54.832Z,101814.56
2023-03-16T16:04:23.628Z,101816.16
2023-03-16T16:07:02.226Z,101815.03
2023-03-16T16:09:29.229Z,101808.50
2023-03-16T16:11:56.413Z,101812.16
2023-03-16T16:14:25.617Z,101813.19
2023-03-16T16:16:54.441Z,101813.78
2023-03-16T16:19:21.690Z,101817.63
2023-03-16T16:21:48.912Z,101812.66
2023-03-16T16:24:20.806Z,101819.91
2023-03-16T16:26:55.327Z,101815.84
2023-03-16T16:29:24.919Z,101813.41
2023-03-16T16:31:52.473Z,101808.41
2023-03-16T16:34:24.045Z,101818.16
2023-03-16T16:36:50.952Z,101820.06
2023-03-16T16:39:20.540Z,101825.38
2023-03-16T16:41:49.348Z,101827.16
2023-03-16T16:44:26.065Z,101820.25
2023-03-16T16:46:53.822Z,101817.66
2023-03-16T16:49:26.301Z,101816.78
2023-03-16T16:51:53.719Z,101811.56
2023-03-16T16:54:29.392Z,101810.75
2023-03-16T16:56:58.608Z,101809.00
2023-03-16T16:59:29.076Z,101803.81
2023-03-16T17:02:00.458Z,101806.38
2023-03-16T17:04:29.158Z,101796.81
2023-03-16T17:07:02.154Z,101803.72
2023-03-16T17:09:33.072Z,101798.47
2023-03-16T17:12:01.577Z,101790.63
2023-03-16T17:14:28.650Z,101794.94
2023-03-16T17:16:57.102Z,101789.72
2023-03-16T17:19:28.717Z,101780.97
2023-03-16T17:21:57.628Z,101781.81
2023-03-16T17:24:24.673Z,101798.19
2023-03-16T17:26:54.102Z,101792.88
2023-03-16T17:29:31.607Z,101805.78
2023-03-16T17:32:03.513Z,101798.88
2023-03-16T17:34:33.473Z,101803.97
2023-03-16T17:37:01.949Z,101805.63
2023-03-16T17:39:31.276Z,101807.28
2023-03-16T17:42:02.980Z,101802.81
2023-03-16T17:44:35.054Z,101808.78
2023-03-16T17:47:01.812Z,101813.88
2023-03-16T17:49:31.435Z,101809.47
2023-03-16T17:51:58.143Z,101812.94
2023-03-16T17:54:24.811Z,101812.94
2023-03-16T17:57:00.551Z,101810.34
2023-03-16T17:59:36.282Z,101815.44
2023-03-16T18:02:03.066Z,101814.53
2023-03-16T18:04:29.858Z,101814.56
2023-03-16T18:06:56.735Z,101803.28
2023-03-16T18:09:23.431Z,101797.34
2023-03-16T18:11:51.371Z,101796.47
2023-03-16T18:14:37.536Z,101793.91
2023-03-16T18:17:15.766Z,101796.53
2023-03-16T18:19:43.610Z,101798.31
2023-03-16T18:22:21.966Z,101803.47
2023-03-16T18:24:53.125Z,101806.09
2023-03-16T18:27:20.391Z,101803.59
2023-03-16T18:29:48.293Z,101797.56
2023-03-16T18:32:27.465Z,101789.84
2023-03-16T18:34:54.871Z,101801.19
2023-03-16T18:37:30.540Z,101797.78
2023-03-16T18:39:57.357Z,101789.16
2023-03-16T18:42:27.702Z,101784.06
2023-03-16T18:44:54.416Z,101783.22
2023-03-16T18:47:24.084Z,101776.34
2023-03-16T18:49:54.091Z,101790.25
2023-03-16T18:52:30.721Z,101790.31
2023-03-16T18:54:58.417Z,101778.16
2023-03-16T18:57:26.506Z,101786.88
2023-03-16T18:59:56.396Z,101776.50
2023-03-16T19:02:31.391Z,101779.13
2023-03-16T19:05:00.664Z,101762.69
2023-03-16T19:07:37.865Z,101767.06
2023-03-16T19:10:29.506Z,101770.50
2023-03-16T19:12:56.357Z,101767.06
2023-03-16T19:15:34.031Z,101769.66
2023-03-16T19:18:00.784Z,101765.34
2023-03-16T19:20:29.991Z,101754.09
2023-03-16T19:23:05.980Z,101750.66
2023-03-16T19:25:36.641Z,101749.78
2023-03-16T19:28:08.931Z,101743.72
2023-03-16T19:30:44.852Z,101744.56
2023-03-16T19:33:18.959Z,101744.53
2023-03-16T19:35:51.979Z,101749.78
2023-03-16T19:38:26.386Z,101756.66
2023-03-16T19:40:59.058Z,101755.78
2023-03-16T19:43:27.757Z,101763.56
2023-03-16T19:45:56.626Z,101764.41
2023-03-16T19:48:33.396Z,101765.28
2023-03-16T19:51:01.021Z,101771.25
2023-03-16T19:53:27.683Z,101778.16
2023-03-16T19:55:54.600Z,101777.31
2023-03-16T19:58:34.970Z,101779.94
2023-03-16T20:01:02.292Z,101772.13
2023-03-16T20:03:33.291Z,101764.34
2023-03-16T20:05:59.945Z,101762.59
2023-03-16T20:08:29.120Z,101773.84
2023-03-16T20:11:07.549Z,101772.06
2023-03-16T20:13:40.529Z,101773.72
2023-03-16T20:16:08.250Z,101777.19
2023-03-16T20:18:34.763Z,101777.25
2023-03-16T20:21:02.159Z,101759.94
2023-03-16T20:23:30.688Z,101757.41
2023-03-16T20:26:02.020Z,101746.19
2023-03-16T20:28:37.098Z,101754.84
2023-03-16T20:31:08.329Z,101760.03
2023-03-16T20:33:35.166Z,101754.88
2023-03-16T20:36:02.860Z,101769.56
2023-03-16T20:38:29.416Z,101758.31
2023-03-16T20:40:56.759Z,101752.25
2023-03-16T20:43:23.808Z,101761.81
2023-03-16T20:45:52.841Z,101745.38
2023-03-16T20:48:19.586Z,101738.41
2023-03-16T20:50:46.364Z,101748.81
2023-03-16T20:53:13.063Z,101754.88
2023-03-16T20:55:39.951Z,101742.75
2023-03-16T20:58:25.584Z,101740.16
2023-03-16T21:00:57.873Z,101737.56
2023-03-16T21:03:33.778Z,101747.06
2023-03-16T21:06:00.629Z,101743.59
2023-03-16T21:08:27.524Z,101735.78
2023-03-16T21:11:03.474Z,101740.13
2023-03-16T21:13:32.598Z,101736.66
2023-03-16T21:16:01.850Z,101734.09
2023-03-16T21:18:29.568Z,101727.16
2023-03-16T21:20:56.417Z,101715.88
2023-03-16T21:23:27.346Z,101717.66
2023-03-16T21:26:01.556Z,101710.75
2023-03-16T21:28:31.861Z,101701.25
2023-03-16T21:30:59.221Z,101704.69
2023-03-16T21:33:56.921Z,101708.16
2023-03-16T21:36:31.459Z,101705.59
2023-03-16T21:38:58.078Z,101709.91
2023-03-16T21:41:24.809Z,101693.44
2023-03-16T21:43:54.579Z,101696.03
2023-03-16T21:46:23.442Z,101687.38
2023-03-16T21:48:58.396Z,101696.88
2023-03-16T21:51:31.490Z,101690.78
2023-03-16T21:53:58.231Z,101683.81
2023-03-16T21:56:26.262Z,101689.00
2023-03-16T21:58:54.437Z,101686.41
2023-03-16T22:01:27.997Z,101682.00
2023-03-16T22:04:02.835Z,101675.94
2023-03-16T22:06:30.105Z,101673.38
2023-03-16T22:09:02.234Z,101673.34
2023-03-16T22:11:30.844Z,101675.13
2023-03-16T22:13:59.223Z,101663.00
2023-03-16T22:16:28.867Z,101654.34
2023-03-16T22:18:57.025Z,101655.19
2023-03-16T22:21:27.218Z,101655.19
2023-03-16T22:23:58.384Z,101657.84
2023-03-16T22:26:29.515Z,101640.50
2023-03-16T22:28:57.153Z,101644.84
2023-03-16T22:31:33.561Z,101638.81
2023-03-16T22:34:03.745Z,101642.25
2023-03-16T22:36:32.280Z,101645.69
2023-03-16T22:39:05.844Z,101637.06
2023-03-16T22:41:35.867Z,101635.31
2023-03-16T22:44:02.957Z,101638.78
2023-03-16T22:46:30.099Z,101627.53
2023-03-16T22:48:57.179Z,101625.81
2023-03-16T22:51:32.168Z,101625.78
2023-03-16T22:54:04.690Z,101625.84
2023-03-16T22:56:32.607Z,101620.66
2023-03-16T22:59:03.140Z,101617.16
2023-03-16T23:01:40.593Z,101611.97
2023-03-16T23:04:33.840Z,101604.19
2023-03-16T23:07:00.404Z,101602.47
2023-03-16T23:09:27.142Z,101605.06
2023-03-16T23:11:55.416Z,101592.06
2023-03-16T23:14:25.893Z,101599.88
2023-03-16T23:16:52.805Z,101608.53
2023-03-16T23:19:25.757Z,101614.53
2023-03-16T23:21:55.003Z,101608.50
2023-03-16T23:24:25.584Z,101603.28
2023-03-16T23:26:53.902Z,101602.41
2023-03-16T23:29:21.729Z,101595.47
2023-03-16T23:31:48.636Z,101594.63
2023-03-16T23:34:19.188Z,101589.41
2023-03-16T23:36:52.874Z,101585.91
2023-03-16T23:39:19.680Z,101577.22
2023-03-16T23:41:50.680Z,101572.88
2023-03-16T23:44:28.620Z,101575.50
2023-03-16T23:46:55.718Z,101570.28
2023-03-16T23:49:34.440Z,101582.41
2023-03-16T23:52:01.965Z,101571.16
2023-03-16T23:54:40.700Z,101577.19
2023-03-16T23:57:08.875Z,101572.84
2023-03-16T23:59:41.325Z,101576.31
